createdAt,value
2023-02-18T00:01:30.867Z,0.63
2023-02-18T00:04:00.373Z,1.92
2023-02-18T00:06:32.266Z,2.00
2023-02-18T00:09:02.474Z,1.85
2023-02-18T00:11:32.866Z,5.30
2023-02-18T00:14:02.641Z,1.77
2023-02-18T00:16:57.098Z,1.35
2023-02-18T00:19:24.738Z,2.88
2023-02-18T00:21:52.379Z,1.75
2023-02-18T00:24:23.792Z,0.57
2023-02-18T00:26:53.534Z,4.15
2023-02-18T00:29:23.522Z,3.13
2023-02-18T00:31:51.580Z,1.35
2023-02-18T00:34:19.919Z,3.60
2023-02-18T00:36:47.963Z,4.85
2023-02-18T00:39:15.794Z,1.67
2023-02-18T00:41:43.689Z,2.33
2023-02-18T00:44:13.043Z,1.52
2023-02-18T00:46:41.023Z,1.52
2023-02-18T00:49:09.117Z,0.95
2023-02-18T00:51:36.866Z,1.33
2023-02-18T00:54:04.503Z,0.85
2023-02-18T00:56:32.176Z,2.10
2023-02-18T00:59:01.521Z,1.75
2023-02-18T01:01:29.786Z,2.47
2023-02-18T01:03:58.082Z,3.08
2023-02-18T01:06:26.396Z,2.97
2023-02-18T01:08:54.596Z,1.33
2023-02-18T01:11:23.226Z,3.30
2023-02-18T01:13:52.001Z,2.17
2023-02-18T01:16:19.718Z,0.10
2023-02-18T01:18:47.008Z,1.20
2023-02-18T01:21:14.878Z,1.30
2023-02-18T01:23:43.184Z,0.30
2023-02-18T01:26:11.403Z,10.55
2023-02-18T01:28:40.896Z,3.28
2023-02-18T01:31:10.460Z,0.43
2023-02-18T01:33:38.028Z,0.10
2023-02-18T01:36:06.663Z,1.63
2023-02-18T01:38:36.141Z,0.68
2023-02-18T01:41:04.264Z,4.18
2023-02-18T01:43:32.145Z,3.15
2023-02-18T01:46:32.175Z,1.73
2023-02-18T01:49:01.333Z,0.08
2023-02-18T01:51:43.276Z,3.13
2023-02-18T01:54:16.634Z,0.63
2023-02-18T01:57:01.459Z,0.82
2023-02-18T01:59:33.125Z,0.20
2023-02-18T02:02:00.849Z,5.80
2023-02-18T02:04:30.416Z,4.30
2023-02-18T02:06:57.713Z,8.10
2023-02-18T02:09:27.196Z,2.47
2023-02-18T02:12:20.771Z,2.05
2023-02-18T02:15:15.402Z,6.28
2023-02-18T02:18:07.926Z,3.35
2023-02-18T02:21:23.334Z,3.47
2023-02-18T02:24:14.677Z,2.08
2023-02-18T02:27:06.914Z,1.38
2023-02-18T02:30:04.871Z,0.95
2023-02-18T02:33:14.658Z,6.03
2023-02-18T02:36:13.054Z,1.67
2023-02-18T02:38:51.268Z,0.35
2023-02-18T02:41:43.297Z,3.42
2023-02-18T02:44:30.074Z,0.45
2023-02-18T02:47:04.465Z,1.58
2023-02-18T02:50:20.491Z,1.60
2023-02-18T02:52:56.952Z,0.88
2023-02-18T02:55:24.321Z,0.30
2023-02-18T02:57:59.082Z,1.98
2023-02-18T03:00:49.855Z,0.20
2023-02-18T03:03:36.887Z,0.38
2023-02-18T03:06:24.044Z,2.97
2023-02-18T03:09:10.387Z,0.57
2023-02-18T03:11:50.958Z,1.17
2023-02-18T03:14:30.203Z,0.30
2023-02-18T03:17:18.092Z,0.52
2023-02-18T03:19:52.723Z,0.10
2023-02-18T03:22:25.386Z,0.40
2023-02-18T03:25:21.321Z,0.28
2023-02-18T03:27:53.651Z,0.00
2023-02-18T03:30:51.740Z,4.15
2023-02-18T03:33:30.195Z,3.47
2023-02-18T03:35:59.156Z,1.75
2023-02-18T03:38:37.912Z,0.13
2023-02-18T03:41:06.088Z,3.83
2023-02-18T03:43:34.158Z,6.68
2023-02-18T03:46:02.433Z,1.38
2023-02-18T03:48:29.784Z,1.90
2023-02-18T03:50:57.111Z,2.65
2023-02-18T03:53:24.451Z,3.85
2023-02-18T03:55:51.673Z,1.15
2023-02-18T03:58:18.850Z,1.77
2023-02-18T04:00:46.066Z,2.22
2023-02-18T04:03:13.359Z,1.60
2023-02-18T04:05:40.623Z,5.20
2023-02-18T04:08:08.200Z,0.47
2023-02-18T04:10:35.607Z,2.72
2023-02-18T04:13:03.016Z,1.67
2023-02-18T04:15:31.592Z,1.13
2023-02-18T04:17:58.780Z,0.95
2023-02-18T04:20:26.054Z,4.43
2023-02-18T04:22:55.408Z,3.28
2023-02-18T04:25:22.726Z,1.02
2023-02-18T04:27:50.357Z,2.25
2023-02-18T04:30:19.002Z,1.15
2023-02-18T04:32:46.558Z,5.07
2023-02-18T04:35:13.892Z,0.93
2023-02-18T04:37:41.572Z,3.92
2023-02-18T04:40:09.672Z,5.57
2023-02-18T04:42:36.918Z,3.92
2023-02-18T04:45:04.535Z,1.45
2023-02-18T04:47:32.093Z,7.30
2023-02-18T04:49:59.541Z,3.17
2023-02-18T04:52:26.751Z,2.70
2023-02-18T04:54:53.981Z,2.08
2023-02-18T04:57:21.325Z,3.17
2023-02-18T04:59:48.505Z,3.88
2023-02-18T05:02:15.710Z,4.43
2023-02-18T05:04:42.888Z,4.38
2023-02-18T05:07:12.264Z,1.83
2023-02-18T05:09:42.597Z,2.95
2023-02-18T05:12:11.007Z,1.92
2023-02-18T05:14:40.709Z,3.70
2023-02-18T05:17:07.939Z,2.17
2023-02-18T05:19:35.136Z,3.40
2023-02-18T05:22:02.333Z,1.60
2023-02-18T05:24:29.536Z,4.15
2023-02-18T05:27:01.114Z,2.88
2023-02-18T05:29:28.307Z,2.33
2023-02-18T05:31:55.520Z,5.10
2023-02-18T05:34:22.735Z,1.13
2023-02-18T05:36:52.124Z,2.90
2023-02-18T05:39:21.411Z,2.38
2023-02-18T05:44:30.679Z,5.13
2023-02-18T05:47:04.714Z,5.55
2023-02-18T05:49:33.934Z,2.42
2023-02-18T05:54:28.567Z,5.90
2023-02-18T05:56:55.826Z,2.42
2023-02-18T05:59:23.478Z,3.38
2023-02-18T06:01:51.524Z,4.55
2023-02-18T06:04:21.108Z,2.00
2023-02-18T06:06:48.596Z,4.22
2023-02-18T06:09:15.901Z,4.13
2023-02-18T06:11:44.184Z,5.80
2023-02-18T06:14:17.712Z,3.78
2023-02-18T06:16:45.211Z,3.22
2023-02-18T06:19:19.977Z,14.63
2023-02-18T06:24:15.318Z,8.77
2023-02-18T06:26:42.754Z,7.25
2023-02-18T06:29:11.244Z,4.78
2023-02-18T06:31:39.917Z,4.47
2023-02-18T06:34:10.488Z,4.47
2023-02-18T06:36:37.899Z,4.82
2023-02-18T06:39:07.521Z,9.13
2023-02-18T06:41:35.555Z,5.78
2023-02-18T06:44:02.785Z,8.00
2023-02-18T06:46:30.029Z,5.43
2023-02-18T06:48:57.211Z,5.70
2023-02-18T06:51:24.650Z,4.70
2023-02-18T06:53:51.848Z,5.70
2023-02-18T06:56:19.092Z,7.80
2023-02-18T06:58:46.304Z,9.23
2023-02-18T07:01:13.547Z,7.57
2023-02-18T07:04:06.108Z,5.75
2023-02-18T07:06:34.348Z,3.40
2023-02-18T07:09:01.619Z,6.35
2023-02-18T07:11:28.782Z,7.25
2023-02-18T07:13:55.980Z,14.15
2023-02-18T07:16:24.364Z,13.02
2023-02-18T07:18:51.608Z,7.82
2023-02-18T07:21:19.809Z,10.20
2023-02-18T07:23:47.001Z,8.52
2023-02-18T07:26:14.957Z,14.02
2023-02-18T07:28:42.155Z,6.88
2023-02-18T07:31:09.828Z,12.02
2023-02-18T07:33:37.146Z,8.60
2023-02-18T07:36:04.812Z,5.80
2023-02-18T07:38:32.107Z,13.75
2023-02-18T07:40:59.744Z,8.43
2023-02-18T07:43:28.242Z,8.68
2023-02-18T07:45:57.555Z,6.38
2023-02-18T07:48:24.795Z,8.85
2023-02-18T07:50:52.054Z,8.48
2023-02-18T07:53:22.485Z,9.65
2023-02-18T07:55:50.860Z,7.25
2023-02-18T07:58:25.577Z,5.38
2023-02-18T08:00:54.170Z,8.55
2023-02-18T08:03:23.748Z,4.88
2023-02-18T08:05:54.117Z,7.97
2023-02-18T08:08:27.081Z,4.93
2023-02-18T08:10:56.186Z,6.38
2023-02-18T08:13:23.504Z,8.70
2023-02-18T08:15:51.077Z,4.70
2023-02-18T08:18:20.872Z,4.65
2023-02-18T08:20:49.700Z,6.68
2023-02-18T08:23:18.416Z,3.75
2023-02-18T08:25:50.308Z,6.93
2023-02-18T08:28:23.184Z,10.02
2023-02-18T08:30:53.476Z,6.30
2023-02-18T08:33:21.331Z,9.93
2023-02-18T08:35:50.529Z,6.53
2023-02-18T08:40:46.043Z,5.10
2023-02-18T08:43:14.336Z,6.93
2023-02-18T08:45:42.724Z,7.30
2023-02-18T08:48:18.112Z,6.88
2023-02-18T08:50:48.065Z,5.28
2023-02-18T08:53:16.384Z,6.03
2023-02-18T08:55:46.330Z,6.72
2023-02-18T08:58:13.717Z,7.70
2023-02-18T09:00:42.774Z,10.25
2023-02-18T09:03:14.046Z,6.63
2023-02-18T09:05:41.659Z,7.35
2023-02-18T09:08:09.053Z,9.13
2023-02-18T09:10:36.305Z,7.00
2023-02-18T09:13:03.764Z,7.75
2023-02-18T09:15:32.284Z,7.38
2023-02-18T09:17:59.856Z,9.45
2023-02-18T09:20:28.187Z,5.45
2023-02-18T09:22:55.632Z,13.32
2023-02-18T09:25:24.989Z,6.75
2023-02-18T09:27:52.236Z,9.30
2023-02-18T09:30:19.610Z,7.30
2023-02-18T09:32:46.825Z,7.28
2023-02-18T09:35:14.196Z,9.13
2023-02-18T09:37:41.789Z,7.47
2023-02-18T09:40:25.928Z,8.90
2023-02-18T09:42:56.110Z,4.57
2023-02-18T09:45:23.732Z,11.25
2023-02-18T09:47:51.890Z,6.07
2023-02-18T09:50:26.276Z,5.85
2023-02-18T09:52:54.114Z,8.07
2023-02-18T09:55:27.817Z,3.85
2023-02-18T09:58:06.952Z,7.25
2023-02-18T10:00:39.588Z,5.47
2023-02-18T10:03:14.858Z,5.43
2023-02-18T10:05:58.929Z,3.58
2023-02-18T10:08:29.669Z,4.70
2023-02-18T10:10:57.555Z,3.67
2023-02-18T10:13:31.059Z,3.70
2023-02-18T10:15:58.436Z,2.60
2023-02-18T10:21:06.189Z,1.98
2023-02-18T10:23:37.027Z,2.03
2023-02-18T10:26:08.685Z,8.18
2023-02-18T10:28:37.843Z,3.70
2023-02-18T10:31:10.904Z,4.32
2023-02-18T10:33:50.138Z,2.90
2023-02-18T10:36:29.234Z,3.17
2023-02-18T10:39:32.167Z,2.38
2023-02-18T10:42:34.017Z,2.10
2023-02-18T10:45:25.000Z,0.52
2023-02-18T10:48:11.020Z,1.35
2023-02-18T10:50:41.580Z,0.38
2023-02-18T10:53:16.861Z,0.10
2023-02-18T10:55:49.039Z,0.68
2023-02-18T10:58:35.369Z,0.00
2023-02-18T11:01:13.209Z,0.00
2023-02-18T11:03:46.166Z,0.10
2023-02-18T11:06:31.365Z,0.25
2023-02-18T11:08:59.972Z,0.00
2023-02-18T11:11:38.084Z,0.00
2023-02-18T11:14:08.189Z,0.08
2023-02-18T11:16:44.375Z,0.25
2023-02-18T11:19:34.903Z,0.00
2023-02-18T11:22:20.306Z,0.10
2023-02-18T11:24:53.771Z,0.00
2023-02-18T11:27:26.154Z,0.08
2023-02-18T11:30:00.741Z,0.00
2023-02-18T11:32:29.887Z,0.63
2023-02-18T11:34:57.541Z,0.13
2023-02-18T11:37:25.205Z,0.40
2023-02-18T11:39:55.760Z,0.15
2023-02-18T11:42:26.804Z,0.20
2023-02-18T11:44:59.994Z,0.00
2023-02-18T11:47:35.509Z,0.15
2023-02-18T11:50:08.948Z,0.00
2023-02-18T11:52:42.344Z,0.10
2023-02-18T11:55:23.027Z,0.52
2023-02-18T11:57:54.964Z,0.00
2023-02-18T12:00:38.743Z,0.28
2023-02-18T12:03:28.693Z,0.22
2023-02-18T12:06:00.125Z,0.88
2023-02-18T12:08:31.430Z,0.38
2023-02-18T12:11:07.076Z,0.35
2023-02-18T12:13:39.769Z,0.20
2023-02-18T12:16:40.441Z,0.10
2023-02-18T12:19:17.286Z,0.75
2023-02-18T12:21:47.205Z,0.13
2023-02-18T12:24:45.425Z,0.20
2023-02-18T12:27:12.600Z,0.52
2023-02-18T12:30:13.654Z,0.20
2023-02-18T12:32:46.559Z,0.30
2023-02-18T12:35:40.496Z,0.60
2023-02-18T12:38:53.916Z,0.20
2023-02-18T12:41:36.804Z,0.90
2023-02-18T12:44:34.099Z,0.38
2023-02-18T12:47:42.720Z,0.57
2023-02-18T12:50:21.434Z,0.40
2023-02-18T12:53:13.567Z,0.40
2023-02-18T12:56:13.225Z,0.70
2023-02-18T12:58:57.808Z,0.50
2023-02-18T13:01:36.513Z,0.70
2023-02-18T13:04:21.737Z,0.55
2023-02-18T13:07:02.941Z,0.98
2023-02-18T13:10:18.690Z,0.50
2023-02-18T13:12:59.555Z,0.52
2023-02-18T13:15:53.564Z,0.82
2023-02-18T13:18:27.977Z,0.65
2023-02-18T13:21:16.581Z,0.45
2023-02-18T13:23:56.495Z,0.50
2023-02-18T13:26:25.115Z,0.45
2023-02-18T13:29:29.924Z,1.70
2023-02-18T13:32:12.296Z,0.52
2023-02-18T13:35:00.338Z,0.70
2023-02-18T13:37:49.656Z,1.50
2023-02-18T13:40:25.233Z,0.55
2023-02-18T13:42:53.774Z,0.55
2023-02-18T13:45:30.903Z,1.08
2023-02-18T13:47:59.280Z,1.35
2023-02-18T13:50:33.423Z,2.28
2023-02-18T13:53:15.311Z,1.02
2023-02-18T13:55:55.799Z,0.08
2023-02-18T13:58:30.916Z,0.52
2023-02-18T14:01:02.777Z,0.90
2023-02-18T14:03:45.066Z,0.75
2023-02-18T14:06:47.574Z,0.52
2023-02-18T14:09:14.745Z,0.63
2023-02-18T14:11:47.139Z,0.40
2023-02-18T14:14:26.762Z,0.10
2023-02-18T14:17:13.795Z,0.40
2023-02-18T14:19:41.101Z,1.95
2023-02-18T14:22:29.064Z,0.30
2023-02-18T14:25:09.619Z,0.60
2023-02-18T14:27:38.450Z,1.38
2023-02-18T14:30:33.400Z,0.55
2023-02-18T14:33:01.977Z,0.93
2023-02-18T14:36:06.311Z,0.60
2023-02-18T14:38:48.946Z,0.50
2023-02-18T14:41:57.610Z,0.57
2023-02-18T14:44:54.060Z,0.98
2023-02-18T14:47:46.437Z,1.80
2023-02-18T14:50:19.830Z,0.38
2023-02-18T14:52:57.624Z,0.52
2023-02-18T14:55:32.226Z,0.80
2023-02-18T14:58:11.967Z,0.77
2023-02-18T15:00:44.403Z,1.30
2023-02-18T15:03:15.834Z,0.88
2023-02-18T15:05:44.051Z,1.30
2023-02-18T15:08:20.620Z,0.50
2023-02-18T15:10:58.956Z,0.50
2023-02-18T15:13:45.309Z,1.10
2023-02-18T15:16:29.597Z,2.55
2023-02-18T15:19:03.298Z,1.02
2023-02-18T15:21:39.108Z,0.85
2023-02-18T15:24:08.489Z,1.73
2023-02-18T15:26:43.419Z,1.40
2023-02-18T15:29:18.559Z,1.45
2023-02-18T15:31:47.065Z,1.73
2023-02-18T15:34:29.894Z,1.38
2023-02-18T15:37:01.814Z,1.35
2023-02-18T15:39:32.418Z,0.70
2023-02-18T15:42:07.557Z,0.52
2023-02-18T15:44:36.821Z,0.80
2023-02-18T15:47:09.125Z,1.45
2023-02-18T15:53:54.164Z,1.05
2023-02-18T15:56:33.988Z,1.23
2023-02-18T15:59:20.249Z,1.10
2023-02-18T16:01:53.709Z,1.67
2023-02-18T16:04:22.881Z,0.63
2023-02-18T16:09:29.574Z,1.02
2023-02-18T16:12:02.957Z,1.73
2023-02-18T16:14:44.994Z,1.52
2023-02-18T16:17:12.209Z,0.93
2023-02-18T16:20:03.291Z,2.50
2023-02-18T16:22:31.963Z,0.70
2023-02-18T16:25:26.385Z,0.82
2023-02-18T16:28:03.946Z,1.48
2023-02-18T16:30:35.322Z,1.73
2023-02-18T16:33:03.148Z,1.80
2023-02-18T16:35:47.495Z,2.20
2023-02-18T16:38:22.238Z,1.27
2023-02-18T16:40:50.158Z,1.05
2023-02-18T16:43:20.274Z,1.27
2023-02-18T16:45:51.925Z,3.08
2023-02-18T16:48:40.620Z,1.20
2023-02-18T16:51:14.099Z,2.33
2023-02-18T16:53:51.389Z,2.03
2023-02-18T16:56:26.071Z,1.52
2023-02-18T16:58:53.399Z,3.20
2023-02-18T17:01:30.516Z,3.25
2023-02-18T17:03:59.186Z,1.80
2023-02-18T17:06:26.953Z,4.75
2023-02-18T17:08:54.237Z,2.95
2023-02-18T17:11:28.423Z,3.00
2023-02-18T17:13:59.273Z,3.05
2023-02-18T17:16:27.663Z,2.08
2023-02-18T17:18:54.981Z,1.55
2023-02-18T17:21:24.084Z,3.58
2023-02-18T17:23:52.153Z,2.80
2023-02-18T17:26:21.055Z,2.08
2023-02-18T17:28:48.915Z,2.53
2023-02-18T17:31:20.404Z,2.63
2023-02-18T17:33:47.951Z,1.50
2023-02-18T17:36:15.322Z,1.20
2023-02-18T17:38:42.621Z,3.20
2023-02-18T17:41:11.279Z,1.65
2023-02-18T17:43:39.179Z,1.50
2023-02-18T17:46:10.241Z,1.65
2023-02-18T17:48:37.734Z,1.02
2023-02-18T17:51:07.394Z,3.15
2023-02-18T17:53:35.251Z,1.92
2023-02-18T17:56:02.489Z,1.92
2023-02-18T17:58:29.692Z,4.07
2023-02-18T18:00:57.669Z,3.97
2023-02-18T18:03:24.932Z,4.03
2023-02-18T18:05:54.334Z,2.58
2023-02-18T18:08:21.582Z,3.00
2023-02-18T18:10:54.898Z,2.10
2023-02-18T18:13:25.572Z,3.28
2023-02-18T18:15:53.576Z,2.88
2023-02-18T18:18:21.261Z,3.35
2023-02-18T18:20:52.894Z,4.00
2023-02-18T18:23:22.748Z,2.47
2023-02-18T18:25:55.905Z,1.02
2023-02-18T18:28:23.973Z,2.03
2023-02-18T18:30:53.644Z,1.13
2023-02-18T18:33:26.440Z,1.98
2023-02-18T18:35:55.910Z,2.50
2023-02-18T18:38:25.087Z,2.40
2023-02-18T18:40:53.538Z,2.90
2023-02-18T18:43:24.297Z,3.75
2023-02-18T18:45:52.531Z,3.20
2023-02-18T18:48:21.008Z,2.30
2023-02-18T18:50:49.642Z,2.90
2023-02-18T18:53:26.987Z,3.35
2023-02-18T18:55:57.864Z,2.88
2023-02-18T18:58:25.483Z,4.70
2023-02-18T19:00:55.726Z,2.90
2023-02-18T19:03:25.126Z,1.83
2023-02-18T19:05:52.910Z,1.35
2023-02-18T19:08:20.556Z,3.75
2023-02-18T19:10:50.848Z,3.05
2023-02-18T19:13:23.447Z,3.33
2023-02-18T19:15:59.196Z,1.25
2023-02-18T19:18:27.756Z,1.83
2023-02-18T19:20:55.161Z,2.05
2023-02-18T19:23:22.363Z,1.58
2023-02-18T19:25:49.736Z,2.33
2023-02-18T19:28:18.018Z,2.20
2023-02-18T19:33:15.247Z,2.17
2023-02-18T19:35:43.641Z,3.53
2023-02-18T19:38:13.136Z,3.22
2023-02-18T19:40:41.186Z,3.78
2023-02-18T19:43:09.689Z,2.08
2023-02-18T19:45:44.622Z,3.45
2023-02-18T19:48:13.393Z,4.20
2023-02-18T19:50:42.426Z,1.80
2023-02-18T19:53:10.923Z,1.70
2023-02-18T19:55:38.723Z,2.00
2023-02-18T19:58:06.582Z,4.20
2023-02-18T20:00:34.289Z,2.85
2023-02-18T20:03:01.828Z,2.00
2023-02-18T20:05:29.353Z,1.35
2023-02-18T20:07:56.591Z,4.38
2023-02-18T20:10:25.369Z,2.78
2023-02-18T20:12:54.114Z,1.85
2023-02-18T20:15:22.461Z,2.28
2023-02-18T20:17:50.375Z,2.90
2023-02-18T20:20:19.397Z,2.15
2023-02-18T20:22:46.761Z,3.38
2023-02-18T20:25:14.145Z,3.15
2023-02-18T20:27:54.677Z,4.07
2023-02-18T20:30:27.150Z,3.00
2023-02-18T20:32:54.771Z,3.35
2023-02-18T20:35:22.311Z,1.83
2023-02-18T20:37:49.561Z,3.53
2023-02-18T20:40:16.966Z,3.92
2023-02-18T20:42:44.330Z,2.00
2023-02-18T20:45:11.713Z,0.70
2023-02-18T20:47:39.019Z,2.15
2023-02-18T20:50:06.865Z,3.78
2023-02-18T20:52:34.866Z,3.40
2023-02-18T20:55:02.326Z,3.63
2023-02-18T20:57:29.524Z,1.05
2023-02-18T20:59:58.320Z,1.02
2023-02-18T21:02:25.810Z,0.73
2023-02-18T21:04:53.155Z,0.63
2023-02-18T21:07:20.376Z,1.60
2023-02-18T21:09:47.621Z,1.65
2023-02-18T21:12:14.855Z,3.65
2023-02-18T21:14:43.077Z,2.08
2023-02-18T21:17:10.280Z,1.98
2023-02-18T21:19:37.585Z,2.45
2023-02-18T21:22:04.830Z,2.25
2023-02-18T21:24:32.120Z,2.53
2023-02-18T21:26:59.466Z,0.65
2023-02-18T21:29:27.848Z,0.57
2023-02-18T21:31:55.899Z,1.15
2023-02-18T21:34:26.066Z,2.38
2023-02-18T21:36:53.398Z,1.55
2023-02-18T21:39:20.984Z,1.35
2023-02-18T21:41:48.192Z,4.28
2023-02-18T21:44:15.645Z,4.07
2023-02-18T21:46:42.979Z,2.38
2023-02-18T21:49:12.311Z,1.40
2023-02-18T21:52:21.952Z,2.75
2023-02-18T21:54:52.558Z,3.47
2023-02-18T21:57:21.986Z,2.83
2023-02-18T21:59:49.242Z,3.35
2023-02-18T22:02:23.110Z,2.42
2023-02-18T22:04:51.457Z,2.60
2023-02-18T22:07:19.768Z,0.60
2023-02-18T22:09:48.800Z,0.80
2023-02-18T22:12:16.992Z,0.20
2023-02-18T22:14:44.763Z,0.60
2023-02-18T22:17:13.260Z,3.42
2023-02-18T22:19:40.717Z,4.32
2023-02-18T22:22:08.164Z,5.20
2023-02-18T22:24:35.563Z,0.60
2023-02-18T22:27:02.857Z,0.80
2023-02-18T22:29:33.181Z,6.43
2023-02-18T22:32:00.668Z,3.80
2023-02-18T22:34:28.174Z,3.25
2023-02-18T22:36:55.417Z,2.65
2023-02-18T22:39:22.637Z,6.28
2023-02-18T22:41:49.992Z,2.83
2023-02-18T22:44:17.989Z,4.45
2023-02-18T22:46:45.629Z,3.47
2023-02-18T22:49:13.508Z,2.22
2023-02-18T22:51:43.257Z,7.07
2023-02-18T22:54:13.838Z,4.70
2023-02-18T22:56:41.819Z,1.45
2023-02-18T22:59:11.301Z,0.45
2023-02-18T23:01:41.333Z,0.40
2023-02-18T23:04:14.332Z,2.30
2023-02-18T23:06:43.929Z,1.25
2023-02-18T23:09:17.598Z,3.70
2023-02-18T23:11:45.075Z,2.20
2023-02-18T23:14:18.072Z,1.90
2023-02-18T23:17:13.643Z,3.47
2023-02-18T23:19:51.376Z,1.95
2023-02-18T23:22:32.208Z,1.17
2023-02-18T23:25:00.579Z,2.38
2023-02-18T23:27:28.543Z,2.30
2023-02-18T23:29:56.471Z,2.28
2023-02-18T23:32:24.665Z,2.78
2023-02-18T23:34:51.952Z,3.15
2023-02-18T23:37:39.382Z,1.08
2023-02-18T23:40:07.185Z,2.28
2023-02-18T23:42:34.434Z,5.25
2023-02-18T23:45:01.754Z,1.77
2023-02-18T23:47:28.959Z,0.80
2023-02-18T23:49:56.281Z,0.55
2023-02-18T23:52:23.882Z,0.47
2023-02-18T23:54:51.103Z,1.77
2023-02-18T23:57:18.309Z,1.48
2023-02-18T23:59:45.624Z,0.65
